createdAt,value
2022-09-15T00:02:22.178Z,1.00
2022-09-15T00:04:48.736Z,0.80
2022-09-15T00:07:16.020Z,0.98
2022-09-15T00:09:42.547Z,0.75
2022-09-15T00:12:09.053Z,0.57
2022-09-15T00:14:35.584Z,0.82
2022-09-15T00:17:02.143Z,0.82
2022-09-15T00:19:28.652Z,0.70
2022-09-15T00:21:55.127Z,0.90
2022-09-15T00:24:21.620Z,1.25
2022-09-15T00:26:48.096Z,1.00
2022-09-15T00:29:14.559Z,1.08
2022-09-15T00:31:41.070Z,1.10
2022-09-15T00:34:07.645Z,0.95
2022-09-15T00:36:34.187Z,1.25
2022-09-15T00:39:00.946Z,1.00
2022-09-15T00:41:27.783Z,1.13
2022-09-15T00:43:56.059Z,0.98
2022-09-15T00:46:39.803Z,1.10
2022-09-15T00:49:24.045Z,1.00
2022-09-15T00:51:57.100Z,1.20
2022-09-15T00:54:31.636Z,0.98
2022-09-15T00:57:02.815Z,1.00
2022-09-15T00:59:32.376Z,0.93
2022-09-15T01:02:13.323Z,1.10
2022-09-15T01:04:39.858Z,0.85
2022-09-15T01:07:10.225Z,1.00
2022-09-15T01:09:45.520Z,0.95
2022-09-15T01:12:12.146Z,0.75
2022-09-15T01:14:38.846Z,1.02
2022-09-15T01:17:29.657Z,0.90
2022-09-15T01:19:56.137Z,0.95
2022-09-15T01:22:38.035Z,0.75
2022-09-15T01:25:29.568Z,0.60
2022-09-15T01:28:30.171Z,0.75
2022-09-15T01:31:01.953Z,0.75
2022-09-15T01:33:38.686Z,0.90
2022-09-15T01:36:20.036Z,0.73
2022-09-15T01:38:55.130Z,0.93
2022-09-15T01:41:26.911Z,0.93
2022-09-15T01:44:05.208Z,0.80
2022-09-15T01:46:36.266Z,0.80
2022-09-15T01:49:05.038Z,0.90
2022-09-15T01:51:33.764Z,0.70
2022-09-15T01:54:03.855Z,0.70
2022-09-15T01:56:30.379Z,0.57
2022-09-15T01:58:57.300Z,0.60
2022-09-15T02:01:32.446Z,0.70
2022-09-15T02:04:03.080Z,0.90
2022-09-15T02:06:39.654Z,0.70
2022-09-15T02:09:17.626Z,0.60
2022-09-15T02:12:06.731Z,0.60
2022-09-15T02:15:05.497Z,0.68
2022-09-15T02:17:36.131Z,0.55
2022-09-15T02:20:08.759Z,0.60
2022-09-15T02:22:40.212Z,0.60
2022-09-15T02:25:21.467Z,0.63
2022-09-15T02:27:52.907Z,0.75
2022-09-15T02:30:20.464Z,0.50
2022-09-15T02:32:58.162Z,0.35
2022-09-15T02:35:28.662Z,0.60
2022-09-15T02:37:56.585Z,0.57
2022-09-15T02:40:23.506Z,0.60
2022-09-15T02:43:01.818Z,0.68
2022-09-15T02:45:31.041Z,0.77
2022-09-15T02:47:58.602Z,0.80
2022-09-15T02:50:26.661Z,0.73
2022-09-15T02:52:57.263Z,0.35
2022-09-15T02:55:27.279Z,0.77
2022-09-15T02:57:53.816Z,0.70
2022-09-15T03:00:20.789Z,0.70
2022-09-15T03:02:52.345Z,0.60
2022-09-15T03:05:21.779Z,0.65
2022-09-15T03:07:48.605Z,0.60
2022-09-15T03:10:15.290Z,0.57
2022-09-15T03:12:44.265Z,0.40
2022-09-15T03:15:12.903Z,0.73
2022-09-15T03:17:41.677Z,0.52
2022-09-15T03:20:10.634Z,0.50
2022-09-15T03:22:37.425Z,1.00
2022-09-15T03:25:05.573Z,0.68
2022-09-15T03:27:33.063Z,0.82
2022-09-15T03:29:59.673Z,1.20
2022-09-15T03:32:26.543Z,0.70
2022-09-15T03:34:57.697Z,0.80
2022-09-15T03:37:25.086Z,0.73
2022-09-15T03:39:51.643Z,0.70
2022-09-15T03:42:18.183Z,0.50
2022-09-15T03:44:44.634Z,0.75
2022-09-15T03:47:11.192Z,0.70
2022-09-15T03:49:37.701Z,0.47
2022-09-15T03:52:04.744Z,0.60
2022-09-15T03:54:31.289Z,0.63
2022-09-15T03:56:57.854Z,0.65
2022-09-15T03:59:24.395Z,0.40
2022-09-15T04:01:50.992Z,0.55
2022-09-15T04:04:17.584Z,0.40
2022-09-15T04:06:44.931Z,0.73
2022-09-15T04:09:11.705Z,0.52
2022-09-15T04:11:39.575Z,0.80
2022-09-15T04:14:06.376Z,0.57
2022-09-15T04:16:33.883Z,0.35
2022-09-15T04:19:00.845Z,0.50
2022-09-15T04:21:27.369Z,0.65
2022-09-15T04:23:54.095Z,0.40
2022-09-15T04:26:32.274Z,0.65
2022-09-15T04:29:03.666Z,0.45
2022-09-15T04:31:30.959Z,0.45
2022-09-15T04:33:57.457Z,0.82
2022-09-15T04:36:28.225Z,0.57
2022-09-15T04:38:55.401Z,0.50
2022-09-15T04:41:23.684Z,0.55
2022-09-15T04:43:50.303Z,0.45
2022-09-15T04:46:18.095Z,0.50
2022-09-15T04:48:46.084Z,0.60
2022-09-15T04:51:18.409Z,0.57
2022-09-15T04:53:45.425Z,0.65
2022-09-15T04:56:21.371Z,0.63
2022-09-15T04:58:50.811Z,0.55
2022-09-15T05:01:20.829Z,0.50
2022-09-15T05:03:47.732Z,0.80
2022-09-15T05:06:16.934Z,0.60
2022-09-15T05:08:46.806Z,0.77
2022-09-15T05:11:13.295Z,0.50
2022-09-15T05:13:40.324Z,0.57
2022-09-15T05:16:15.836Z,0.85
2022-09-15T05:18:43.890Z,0.82
2022-09-15T05:21:12.108Z,0.60
2022-09-15T05:23:39.307Z,0.85
2022-09-15T05:26:09.097Z,0.80
2022-09-15T05:28:37.441Z,0.80
2022-09-15T05:31:12.315Z,0.70
2022-09-15T05:33:39.290Z,0.80
2022-09-15T05:36:07.206Z,0.73
2022-09-15T05:38:33.769Z,0.90
2022-09-15T05:41:08.827Z,0.82
2022-09-15T05:43:37.090Z,0.88
2022-09-15T05:46:04.968Z,2.33
2022-09-15T05:48:31.613Z,2.10
2022-09-15T05:50:58.507Z,2.95
2022-09-15T05:53:25.885Z,2.33
2022-09-15T05:55:56.953Z,1.80
2022-09-15T05:58:23.596Z,2.00
2022-09-15T06:00:50.237Z,1.80
2022-09-15T06:03:17.048Z,1.60
2022-09-15T06:05:43.608Z,1.60
2022-09-15T06:08:13.864Z,1.48
2022-09-15T06:10:40.565Z,1.58
2022-09-15T06:13:07.318Z,1.35
2022-09-15T06:15:34.241Z,1.00
2022-09-15T06:18:00.707Z,1.20
2022-09-15T06:20:27.356Z,1.10
2022-09-15T06:22:54.218Z,1.20
2022-09-15T06:25:20.707Z,1.20
2022-09-15T06:27:49.283Z,0.90
2022-09-15T06:30:16.406Z,0.75
2022-09-15T06:32:47.908Z,0.98
2022-09-15T06:35:15.170Z,0.90
2022-09-15T06:37:41.679Z,0.60
2022-09-15T06:40:08.928Z,0.77
2022-09-15T06:42:35.489Z,1.05
2022-09-15T06:45:01.968Z,0.60
2022-09-15T06:47:33.838Z,0.60
2022-09-15T06:50:00.993Z,0.80
2022-09-15T06:52:27.542Z,0.70
2022-09-15T06:54:54.036Z,0.90
2022-09-15T06:57:20.559Z,1.17
2022-09-15T06:59:47.045Z,0.50
2022-09-15T07:02:13.712Z,0.70
2022-09-15T07:04:40.257Z,0.73
2022-09-15T07:07:06.712Z,1.00
2022-09-15T07:09:33.227Z,0.80
2022-09-15T07:11:59.761Z,0.70
2022-09-15T07:14:26.293Z,0.52
2022-09-15T07:16:52.832Z,0.82
2022-09-15T07:19:19.435Z,0.75
2022-09-15T07:21:45.922Z,0.90
2022-09-15T07:24:12.721Z,0.60
2022-09-15T07:26:39.214Z,0.75
2022-09-15T07:29:06.807Z,0.68
2022-09-15T07:31:36.236Z,0.80
2022-09-15T07:34:03.307Z,0.50
2022-09-15T07:36:30.790Z,0.80
2022-09-15T07:38:57.836Z,0.77
2022-09-15T07:41:27.173Z,0.80
2022-09-15T07:43:58.600Z,0.60
2022-09-15T07:46:26.870Z,0.47
2022-09-15T07:48:57.415Z,0.50
2022-09-15T07:51:25.029Z,0.63
2022-09-15T07:53:51.832Z,0.60
2022-09-15T07:56:19.129Z,0.80
2022-09-15T07:58:46.868Z,0.95
2022-09-15T08:01:14.802Z,0.82
2022-09-15T08:03:52.090Z,1.00
2022-09-15T08:06:21.814Z,0.90
2022-09-15T08:08:49.086Z,0.90
2022-09-15T08:11:19.241Z,0.80
2022-09-15T08:13:51.290Z,0.60
2022-09-15T08:16:24.068Z,0.68
2022-09-15T08:18:53.666Z,0.70
2022-09-15T08:21:21.961Z,1.08
2022-09-15T08:23:56.007Z,1.08
2022-09-15T08:26:23.931Z,0.82
2022-09-15T08:28:50.556Z,1.13
2022-09-15T08:31:17.999Z,1.00
2022-09-15T08:33:49.629Z,0.90
2022-09-15T08:36:16.100Z,0.88
2022-09-15T08:38:44.619Z,1.10
2022-09-15T08:41:33.673Z,0.80
2022-09-15T08:44:41.915Z,1.00
2022-09-15T08:47:24.194Z,0.65
2022-09-15T08:50:05.484Z,0.70
2022-09-15T08:52:41.104Z,0.77
2022-09-15T08:55:26.160Z,0.77
2022-09-15T08:57:54.063Z,0.63
2022-09-15T09:00:20.615Z,0.68
2022-09-15T09:03:05.372Z,0.57
2022-09-15T09:05:50.134Z,0.60
2022-09-15T09:08:34.429Z,0.75
2022-09-15T09:11:43.877Z,0.85
2022-09-15T09:14:42.466Z,0.88
2022-09-15T09:17:45.555Z,0.52
2022-09-15T09:20:29.550Z,0.73
2022-09-15T09:22:59.990Z,0.68
2022-09-15T09:25:27.965Z,0.80
2022-09-15T09:27:58.027Z,0.70
2022-09-15T09:30:27.859Z,0.50
2022-09-15T09:33:09.064Z,0.55
2022-09-15T09:35:52.401Z,0.60
2022-09-15T09:38:22.517Z,0.57
2022-09-15T09:40:49.814Z,0.65
2022-09-15T09:43:16.677Z,0.50
2022-09-15T09:45:43.264Z,0.80
2022-09-15T09:48:18.646Z,0.60
2022-09-15T09:50:45.304Z,0.60
2022-09-15T09:53:23.588Z,0.57
2022-09-15T09:55:50.248Z,0.50
2022-09-15T09:58:24.920Z,0.80
2022-09-15T10:00:52.731Z,1.15
2022-09-15T10:03:22.224Z,0.60
2022-09-15T10:06:07.534Z,0.60
2022-09-15T10:08:36.380Z,0.80
2022-09-15T10:11:08.662Z,0.60
2022-09-15T10:13:49.349Z,0.60
2022-09-15T10:16:19.415Z,0.73
2022-09-15T10:18:53.600Z,0.70
2022-09-15T10:21:24.512Z,0.50
2022-09-15T10:23:51.224Z,0.47
2022-09-15T10:26:34.387Z,0.65
2022-09-15T10:29:18.690Z,0.68
2022-09-15T10:31:46.043Z,0.43
2022-09-15T10:34:25.309Z,0.50
2022-09-15T10:37:00.374Z,0.30
2022-09-15T10:39:51.714Z,0.63
2022-09-15T10:42:58.872Z,0.70
2022-09-15T10:45:26.971Z,0.80
2022-09-15T10:48:07.123Z,0.50
2022-09-15T10:50:45.140Z,0.70
2022-09-15T10:53:23.317Z,0.70
2022-09-15T10:56:04.980Z,0.50
2022-09-15T10:58:45.680Z,0.77
2022-09-15T11:01:30.889Z,0.50
2022-09-15T11:04:33.049Z,0.60
2022-09-15T11:07:02.136Z,0.50
2022-09-15T11:09:37.478Z,0.60
2022-09-15T11:12:20.338Z,0.55
2022-09-15T11:15:07.459Z,0.50
2022-09-15T11:17:41.519Z,0.40
2022-09-15T11:20:07.978Z,0.60
2022-09-15T11:22:49.728Z,0.50
2022-09-15T11:25:22.907Z,0.40
2022-09-15T11:27:59.288Z,0.38
2022-09-15T11:30:35.135Z,0.50
2022-09-15T11:33:25.456Z,0.70
2022-09-15T11:36:23.431Z,0.50
2022-09-15T11:38:54.095Z,0.40
2022-09-15T11:41:34.503Z,0.50
2022-09-15T11:44:17.057Z,0.80
2022-09-15T11:46:49.899Z,0.70
2022-09-15T11:49:20.682Z,0.80
2022-09-15T11:52:01.328Z,0.68
2022-09-15T11:55:07.071Z,0.30
2022-09-15T11:57:50.856Z,0.60
2022-09-15T12:00:17.407Z,0.50
2022-09-15T12:03:17.091Z,0.70
2022-09-15T12:05:57.655Z,0.50
2022-09-15T12:08:57.946Z,0.55
2022-09-15T12:11:30.330Z,0.60
2022-09-15T12:13:57.595Z,0.57
2022-09-15T12:16:25.252Z,0.60
2022-09-15T12:19:01.156Z,0.45
2022-09-15T12:21:44.594Z,0.73
2022-09-15T12:24:52.820Z,0.70
2022-09-15T12:27:21.173Z,0.80
2022-09-15T12:29:49.700Z,0.30
2022-09-15T12:32:24.642Z,0.68
2022-09-15T12:35:15.871Z,0.70
2022-09-15T12:37:46.297Z,0.77
2022-09-15T12:40:37.602Z,0.40
2022-09-15T12:43:18.876Z,0.60
2022-09-15T12:45:57.247Z,0.70
2022-09-15T12:48:31.219Z,0.60
2022-09-15T12:51:04.963Z,0.50
2022-09-15T12:56:21.557Z,0.45
2022-09-15T12:58:49.662Z,0.55
2022-09-15T13:01:19.641Z,0.50
2022-09-15T13:03:46.425Z,0.73
2022-09-15T13:06:23.382Z,0.50
2022-09-15T13:09:02.111Z,0.50
2022-09-15T13:11:36.542Z,0.40
2022-09-15T13:14:12.018Z,0.50
2022-09-15T13:16:41.374Z,0.45
2022-09-15T13:19:23.630Z,0.57
2022-09-15T13:22:11.388Z,0.60
2022-09-15T13:25:02.416Z,0.50
2022-09-15T13:27:35.039Z,0.60
2022-09-15T13:30:26.086Z,0.70
2022-09-15T13:40:00.537Z,0.57
2022-09-15T13:42:57.616Z,0.38
2022-09-15T13:45:54.051Z,0.70
2022-09-15T13:48:42.278Z,0.60
2022-09-15T13:51:30.993Z,0.40
2022-09-15T13:54:02.819Z,0.32
2022-09-15T13:56:32.864Z,0.65
2022-09-15T13:59:10.052Z,0.60
2022-09-15T14:01:41.511Z,0.63
2022-09-15T14:04:10.980Z,0.60
2022-09-15T14:06:40.574Z,0.40
2022-09-15T14:09:16.283Z,0.45
2022-09-15T14:14:32.870Z,0.57
2022-09-15T14:16:59.410Z,0.60
2022-09-15T14:19:33.507Z,0.60
2022-09-15T14:22:03.107Z,0.70
2022-09-15T14:24:31.450Z,0.77
2022-09-15T14:27:08.584Z,0.45
2022-09-15T14:29:40.254Z,0.38
2022-09-15T14:32:06.945Z,0.50
2022-09-15T14:34:37.036Z,0.68
2022-09-15T14:37:12.691Z,0.70
2022-09-15T14:42:22.633Z,0.60
2022-09-15T14:47:40.477Z,0.40
2022-09-15T14:50:24.002Z,0.68
2022-09-15T14:53:07.637Z,0.50
2022-09-15T14:55:41.374Z,0.60
2022-09-15T14:58:13.059Z,0.47
2022-09-15T15:00:54.396Z,0.50
2022-09-15T15:03:37.499Z,0.50
2022-09-15T15:06:30.763Z,0.65
2022-09-15T15:09:12.431Z,0.57
2022-09-15T15:11:40.671Z,0.40
2022-09-15T15:14:09.252Z,0.60
2022-09-15T15:16:36.010Z,0.40
2022-09-15T15:19:02.940Z,0.77
2022-09-15T15:21:36.905Z,0.55
2022-09-15T15:24:12.451Z,0.65
2022-09-15T15:26:41.402Z,0.80
2022-09-15T15:29:29.056Z,0.52
2022-09-15T15:32:05.314Z,0.60
2022-09-15T15:34:32.073Z,0.75
2022-09-15T15:37:03.502Z,0.40
2022-09-15T15:39:30.522Z,0.50
2022-09-15T15:42:02.631Z,0.50
2022-09-15T15:44:30.370Z,0.63
2022-09-15T15:46:59.381Z,0.70
2022-09-15T15:49:29.164Z,0.80
2022-09-15T15:51:57.056Z,0.60
2022-09-15T15:54:24.563Z,0.50
2022-09-15T15:56:52.226Z,0.70
2022-09-15T15:59:19.523Z,0.60
2022-09-15T16:01:53.146Z,0.50
2022-09-15T16:04:19.775Z,0.55
2022-09-15T16:06:46.531Z,0.55
2022-09-15T16:09:17.084Z,0.50
2022-09-15T16:11:43.629Z,0.70
2022-09-15T16:14:13.921Z,0.50
2022-09-15T16:16:40.849Z,0.90
2022-09-15T16:19:08.488Z,0.52
2022-09-15T16:21:39.497Z,0.40
2022-09-15T16:24:11.427Z,0.52
2022-09-15T16:26:39.431Z,0.70
2022-09-15T16:29:06.265Z,0.40
2022-09-15T16:31:34.116Z,0.50
2022-09-15T16:34:01.209Z,0.70
2022-09-15T16:36:27.889Z,0.40
2022-09-15T16:38:54.499Z,0.40
2022-09-15T16:41:23.658Z,0.50
2022-09-15T16:43:50.142Z,0.60
2022-09-15T16:46:17.352Z,0.50
2022-09-15T16:48:47.153Z,0.60
2022-09-15T16:51:27.097Z,0.70
2022-09-15T16:53:56.224Z,0.60
2022-09-15T16:56:22.743Z,0.50
2022-09-15T16:58:49.398Z,0.50
2022-09-15T17:01:18.318Z,0.60
2022-09-15T17:03:44.989Z,0.63
2022-09-15T17:06:17.628Z,0.40
2022-09-15T17:08:44.495Z,0.50
2022-09-15T17:11:19.128Z,0.30
2022-09-15T17:13:46.888Z,0.55
2022-09-15T17:16:17.384Z,0.57
2022-09-15T17:18:43.872Z,0.60
2022-09-15T17:21:12.107Z,0.50
2022-09-15T17:23:49.651Z,0.57
2022-09-15T17:26:21.778Z,0.38
2022-09-15T17:28:48.988Z,0.77
2022-09-15T17:31:19.469Z,0.60
2022-09-15T17:33:47.049Z,0.45
2022-09-15T17:36:13.615Z,0.32
2022-09-15T17:38:42.735Z,0.50
2022-09-15T17:41:17.774Z,0.73
2022-09-15T17:43:44.607Z,0.50
2022-09-15T17:46:11.204Z,0.47
2022-09-15T17:48:38.888Z,0.43
2022-09-15T17:51:07.118Z,0.38
2022-09-15T17:53:33.640Z,0.40
2022-09-15T17:56:00.216Z,0.40
2022-09-15T17:58:26.852Z,0.30
2022-09-15T18:00:54.076Z,0.30
2022-09-15T18:03:27.620Z,0.45
2022-09-15T18:05:59.018Z,0.40
2022-09-15T18:08:26.342Z,0.40
2022-09-15T18:10:53.555Z,0.68
2022-09-15T18:13:26.842Z,0.60
2022-09-15T18:15:54.864Z,0.30
2022-09-15T18:18:28.172Z,0.30
2022-09-15T18:20:57.756Z,0.25
2022-09-15T18:23:26.099Z,0.30
2022-09-15T18:25:52.668Z,0.60
2022-09-15T18:28:19.634Z,0.40
2022-09-15T18:30:48.568Z,0.50
2022-09-15T18:33:17.931Z,0.20
2022-09-15T18:35:44.744Z,0.50
2022-09-15T18:38:11.778Z,0.38
2022-09-15T18:40:38.610Z,0.50
2022-09-15T18:43:05.572Z,0.57
2022-09-15T18:45:32.084Z,0.47
2022-09-15T18:47:58.592Z,0.40
2022-09-15T18:50:25.561Z,0.40
2022-09-15T18:52:52.308Z,0.40
2022-09-15T18:55:22.617Z,0.30
2022-09-15T18:57:49.573Z,0.55
2022-09-15T19:00:21.657Z,0.40
2022-09-15T19:02:48.750Z,0.35
2022-09-15T19:05:16.418Z,0.40
2022-09-15T19:07:44.732Z,0.40
2022-09-15T19:10:12.920Z,0.50
2022-09-15T19:12:39.954Z,0.50
2022-09-15T19:15:12.021Z,0.38
2022-09-15T19:17:39.626Z,0.68
2022-09-15T19:20:08.511Z,0.40
2022-09-15T19:22:35.576Z,0.50
2022-09-15T19:25:02.196Z,0.40
2022-09-15T19:27:28.986Z,0.30
2022-09-15T19:29:55.514Z,0.45
2022-09-15T19:32:22.277Z,0.40
2022-09-15T19:34:49.331Z,0.50
2022-09-15T19:37:19.681Z,0.40
2022-09-15T19:39:47.607Z,0.40
2022-09-15T19:44:43.335Z,0.55
2022-09-15T19:47:10.537Z,0.38
2022-09-15T19:49:37.609Z,0.50
2022-09-15T19:52:06.264Z,0.30
2022-09-15T19:54:34.449Z,0.52
2022-09-15T19:57:01.742Z,0.52
2022-09-15T19:59:31.328Z,0.60
2022-09-15T20:01:59.738Z,0.30
2022-09-15T20:04:27.024Z,0.50
2022-09-15T20:06:53.574Z,0.50
2022-09-15T20:09:20.039Z,0.57
2022-09-15T20:11:46.531Z,0.40
2022-09-15T20:14:13.741Z,0.50
2022-09-15T20:16:40.317Z,0.60
2022-09-15T20:19:06.838Z,0.50
2022-09-15T20:21:49.982Z,0.40
2022-09-15T20:24:19.065Z,0.50
2022-09-15T20:26:45.559Z,0.50
2022-09-15T20:29:12.205Z,0.60
2022-09-15T20:31:39.349Z,0.70
2022-09-15T20:34:05.971Z,0.80
2022-09-15T20:36:35.534Z,0.68
2022-09-15T20:39:05.237Z,0.70
2022-09-15T20:41:32.008Z,0.52
2022-09-15T20:43:59.231Z,0.40
2022-09-15T20:46:26.065Z,0.73
2022-09-15T20:48:52.981Z,0.70
2022-09-15T20:51:22.817Z,0.45
2022-09-15T20:53:54.087Z,0.40
2022-09-15T20:56:24.888Z,0.65
2022-09-15T20:58:52.821Z,0.60
2022-09-15T21:01:27.766Z,0.55
2022-09-15T21:03:57.832Z,0.40
2022-09-15T21:06:26.706Z,0.60
2022-09-15T21:08:54.900Z,0.50
2022-09-15T21:11:23.224Z,0.70
2022-09-15T21:13:50.322Z,0.60
2022-09-15T21:16:20.600Z,0.40
2022-09-15T21:18:48.110Z,0.50
2022-09-15T21:21:20.239Z,0.55
2022-09-15T21:23:52.033Z,0.60
2022-09-15T21:26:27.051Z,0.60
2022-09-15T21:28:54.918Z,0.60
2022-09-15T21:31:32.934Z,0.60
2022-09-15T21:33:59.492Z,0.40
2022-09-15T21:36:29.495Z,0.63
2022-09-15T21:38:57.542Z,0.60
2022-09-15T21:41:26.617Z,0.75
2022-09-15T21:43:55.604Z,0.60
2022-09-15T21:46:25.459Z,0.47
2022-09-15T21:48:52.236Z,0.70
2022-09-15T21:51:24.518Z,0.60
2022-09-15T21:53:56.109Z,1.25
2022-09-15T21:56:23.628Z,0.63
2022-09-15T21:58:50.329Z,0.68
2022-09-15T22:01:19.806Z,0.73
2022-09-15T22:03:51.766Z,0.80
2022-09-15T22:06:20.465Z,0.70
2022-09-15T22:08:47.866Z,0.68
2022-09-15T22:11:14.755Z,0.60
2022-09-15T22:13:43.576Z,0.50
2022-09-15T22:16:16.132Z,0.52
2022-09-15T22:18:43.331Z,0.57
2022-09-15T22:21:24.837Z,0.80
2022-09-15T22:23:54.163Z,0.70
2022-09-15T22:26:23.699Z,0.70
2022-09-15T22:28:50.197Z,0.55
2022-09-15T22:31:18.722Z,0.80
2022-09-15T22:33:45.604Z,0.60
2022-09-15T22:36:14.162Z,0.80
2022-09-15T22:38:40.652Z,0.70
2022-09-15T22:41:12.595Z,1.00
2022-09-15T22:43:41.085Z,0.55
2022-09-15T22:46:08.185Z,0.80
2022-09-15T22:48:37.566Z,0.70
2022-09-15T22:51:07.917Z,0.85
2022-09-15T22:53:34.863Z,0.52
2022-09-15T22:56:07.362Z,0.80
2022-09-15T22:58:35.283Z,0.70
2022-09-15T23:01:07.757Z,0.60
2022-09-15T23:03:34.261Z,0.70
2022-09-15T23:06:01.318Z,0.50
2022-09-15T23:08:29.190Z,0.63
2022-09-15T23:11:11.195Z,0.60
2022-09-15T23:13:38.475Z,0.70
2022-09-15T23:16:05.770Z,0.82
2022-09-15T23:18:32.615Z,0.80
2022-09-15T23:21:01.188Z,0.70
2022-09-15T23:23:28.612Z,0.90
2022-09-15T23:25:56.060Z,0.70
2022-09-15T23:28:23.338Z,0.63
2022-09-15T23:30:56.784Z,0.93
2022-09-15T23:33:25.098Z,0.80
2022-09-15T23:35:51.843Z,0.60
2022-09-15T23:38:20.079Z,0.70
2022-09-15T23:40:48.443Z,0.70
2022-09-15T23:43:15.747Z,0.80
2022-09-15T23:45:43.173Z,0.75
2022-09-15T23:48:10.729Z,0.70
2022-09-15T23:50:38.729Z,0.55
2022-09-15T23:53:06.052Z,0.50
2022-09-15T23:55:32.881Z,0.57
2022-09-15T23:57:59.798Z,0.70
